Time;durP1;ratioP1;P1;durP2;ratioP2;P2;SDS_P1;SDS_P2;PMS_P1;PMS_P2;Temp;Humidity;BMP_temperature;BMP_pressure;BME280_temperature;BME280_humidity;BME280_pressure;Samples;Min_cycle;Max_cycle;Signal;HPM_P1;HPM_P2
2022/12/29 00:01:37;;;;;;;4.70;4.50;;;10.60;99.90;;;;;;5052734;28;20210;-63
2022/12/29 00:04:03;;;;;;;4.50;4.30;;;10.50;99.90;;;;;;5053689;28;20248;-63
2022/12/29 00:06:29;;;;;;;4.70;4.50;;;10.50;99.90;;;;;;5053791;28;20200;-64
2022/12/29 00:08:55;;;;;;;4.80;4.60;;;10.50;99.90;;;;;;5053755;28;20179;-64
2022/12/29 00:11:26;;;;;;;4.60;4.40;;;10.60;99.90;;;;;;5052610;28;20584;-63
2022/12/29 00:16:37;;;;;;;4.60;4.40;;;10.60;99.90;;;;;;5034482;28;20245;-64
2022/12/29 00:19:04;;;;;;;5.13;4.93;;;10.60;99.90;;;;;;5032678;28;20222;-63
2022/12/29 00:35:29;;;;;;;4.77;4.57;;;10.80;99.90;;;;;;5031685;28;20214;-63
2022/12/29 00:46:11;;;;;;;4.30;4.10;;;10.90;99.90;;;;;;5051223;28;20190;-63
2022/12/29 00:51:21;;;;;;;4.13;4.00;;;11.00;99.90;;;;;;5033382;28;20234;-63
2022/12/29 00:53:46;;;;;;;4.33;4.13;;;11.00;99.90;;;;;;5052066;28;20490;-64
2022/12/29 00:56:12;;;;;;;4.20;4.00;;;11.00;99.90;;;;;;5051886;28;20198;-63
2022/12/29 00:58:37;;;;;;;4.40;4.20;;;11.10;99.90;;;;;;5052045;28;20569;-64
2022/12/29 01:01:05;;;;;;;4.00;3.90;;;11.10;99.90;;;;;;5051106;28;20191;-62
2022/12/29 01:03:31;;;;;;;4.20;4.00;;;11.10;99.90;;;;;;5051901;28;20257;-62
2022/12/29 01:06:00;;;;;;;4.70;4.50;;;11.10;99.90;;;;;;5051584;28;20543;-64
2022/12/29 01:08:27;;;;;;;4.13;3.97;;;11.10;99.90;;;;;;5051928;28;20258;-64
2022/12/29 01:11:10;;;;;;;4.10;4.00;;;11.00;99.90;;;;;;5050992;28;20231;-63
2022/12/29 01:13:38;;;;;;;4.50;4.30;;;11.00;99.90;;;;;;5051547;28;20182;-63
2022/12/29 01:16:04;;;;;;;4.00;3.90;;;10.90;99.90;;;;;;5051196;28;20245;-63
2022/12/29 01:18:30;;;;;;;4.60;4.30;;;10.90;99.90;;;;;;5051861;28;20212;-64
2022/12/29 01:21:04;;;;;;;4.43;4.23;;;10.90;99.90;;;;;;5048108;28;20337;-63
2022/12/29 01:23:30;;;;;;;4.60;4.40;;;10.90;99.90;;;;;;5051694;28;20537;-63
2022/12/29 01:25:56;;;;;;;4.53;4.33;;;11.00;99.90;;;;;;5051133;28;20185;-63
2022/12/29 01:28:22;;;;;;;4.80;4.60;;;11.10;99.90;;;;;;5051571;28;20185;-63
2022/12/29 01:30:48;;;;;;;4.50;4.30;;;11.10;99.90;;;;;;5051342;28;20195;-63
2022/12/29 01:33:13;;;;;;;4.67;4.47;;;11.10;99.90;;;;;;5051842;28;20178;-64
2022/12/29 01:35:39;;;;;;;4.00;3.90;;;11.20;99.90;;;;;;5051602;28;20214;-64
2022/12/29 01:38:05;;;;;;;7.07;6.77;;;11.20;99.90;;;;;;5051429;28;20206;-64
2022/12/29 01:40:30;;;;;;;4.63;4.43;;;11.20;99.90;;;;;;5051318;28;20579;-63
2022/12/29 01:42:56;;;;;;;4.47;4.27;;;11.30;99.90;;;;;;5051121;28;20182;-64
2022/12/29 01:45:22;;;;;;;4.83;4.63;;;11.40;99.90;;;;;;5050857;28;20203;-64
2022/12/29 01:48:01;;;;;;;4.70;4.50;;;11.40;99.90;;;;;;5051454;28;20182;-64
2022/12/29 01:50:39;;;;;;;4.40;4.20;;;11.50;99.90;;;;;;5050928;28;20277;-64
2022/12/29 01:53:11;;;;;;;4.50;4.20;;;11.60;99.90;;;;;;5047087;28;20179;-64
2022/12/29 01:55:45;;;;;;;5.60;5.40;;;11.60;99.90;;;;;;5050732;28;20695;-64
2022/12/29 01:58:14;;;;;;;5.30;5.00;;;11.70;99.90;;;;;;5051343;28;20172;-64
2022/12/29 02:00:40;;;;;;;3.90;3.80;;;11.70;99.90;;;;;;5050832;28;20627;-64
2022/12/29 02:03:08;;;;;;;5.97;5.77;;;11.80;99.90;;;;;;5050923;28;20195;-64
2022/12/29 02:05:52;;;;;;;5.90;5.70;;;11.70;99.90;;;;;;5050965;28;20596;-63
2022/12/29 02:08:18;;;;;;;5.10;4.90;;;11.70;99.90;;;;;;5050915;28;20180;-64
2022/12/29 02:10:44;;;;;;;8.20;7.87;;;11.70;99.90;;;;;;5050404;28;20225;-63
2022/12/29 02:13:10;;;;;;;52.57;50.27;;;11.70;99.90;;;;;;5050994;28;20261;-63
2022/12/29 02:15:45;;;;;;;5.10;4.90;;;11.70;99.90;;;;;;5050866;28;20294;-64
2022/12/29 02:18:23;;;;;;;4.97;4.77;;;11.80;99.90;;;;;;5051226;28;20647;-64
2022/12/29 02:21:28;;;;;;;4.40;4.20;;;11.80;99.90;;;;;;5050259;28;20195;-63
2022/12/29 02:24:08;;;;;;;4.23;4.03;;;11.90;99.90;;;;;;5030030;28;20664;-64
2022/12/29 02:27:00;;;;;;;4.17;3.97;;;11.90;99.90;;;;;;5047929;28;20221;-64
2022/12/29 02:30:06;;;;;;;4.30;4.10;;;12.00;99.90;;;;;;5030485;28;20197;-64
2022/12/29 02:32:51;;;;;;;4.10;3.90;;;12.10;99.90;;;;;;5031138;28;20175;-64
2022/12/29 02:35:27;;;;;;;3.90;3.70;;;12.10;99.90;;;;;;5035574;28;20294;-63
2022/12/29 02:38:26;;;;;;;3.70;3.60;;;12.10;99.90;;;;;;5050873;28;20162;-63
2022/12/29 02:41:08;;;;;;;4.20;3.90;;;12.10;99.90;;;;;;5073928;22;20300;-65
2022/12/29 02:43:41;;;;;;;4.30;4.10;;;12.20;99.90;;;;;;5050668;28;20539;-65
2022/12/29 02:46:32;;;;;;;4.00;3.80;;;12.20;99.90;;;;;;5050417;28;20179;-66
2022/12/29 02:49:00;;;;;;;4.00;3.80;;;12.30;99.90;;;;;;5050413;28;20269;-65
2022/12/29 02:51:51;;;;;;;4.40;4.20;;;12.30;99.90;;;;;;5050139;28;20175;-65
2022/12/29 02:57:22;;;;;;;4.30;4.10;;;12.30;99.90;;;;;;5006412;28;20194;-66
2022/12/29 02:59:59;;;;;;;5.43;5.13;;;12.30;99.90;;;;;;5070219;28;20217;-65
2022/12/29 03:02:37;;;;;;;4.60;4.40;;;12.30;99.90;;;;;;5074213;28;20274;-66
2022/12/29 03:05:09;;;;;;;4.20;4.00;;;12.30;99.90;;;;;;5073349;28;20178;-65
2022/12/29 03:08:17;;;;;;;4.40;4.20;;;12.30;99.90;;;;;;5074196;28;20249;-65
2022/12/29 03:11:00;;;;;;;3.90;3.70;;;12.30;99.90;;;;;;5021633;28;20261;-65
2022/12/29 03:16:37;;;;;;;3.87;3.67;;;12.30;99.90;;;;;;5054028;28;20692;-66
2022/12/29 03:19:09;;;;;;;4.20;4.00;;;12.30;99.90;;;;;;5054024;28;20193;-66
2022/12/29 03:24:41;;;;;;;3.90;3.80;;;12.30;99.90;;;;;;5065815;28;20223;-66
2022/12/29 03:27:11;;;;;;;4.10;3.90;;;12.20;99.90;;;;;;5073552;28;20591;-65
2022/12/29 03:29:44;;;;;;;3.70;3.60;;;12.20;99.90;;;;;;5059471;28;20635;-65
2022/12/29 03:32:13;;;;;;;4.00;3.80;;;12.20;99.90;;;;;;5053525;28;20481;-65
2022/12/29 03:34:39;;;;;;;4.20;4.00;;;12.20;99.90;;;;;;5053478;28;20174;-65
2022/12/29 03:37:11;;;;;;;4.00;3.90;;;12.30;99.90;;;;;;5053422;28;20584;-64
2022/12/29 03:39:37;;;;;;;4.00;3.80;;;12.30;99.90;;;;;;5062692;28;20206;-65
2022/12/29 03:42:06;;;;;;;4.00;3.80;;;12.30;99.90;;;;;;5073418;28;20182;-66
2022/12/29 03:44:40;;;;;;;3.93;3.80;;;12.30;99.90;;;;;;5072742;28;20171;-66
2022/12/29 03:47:06;;;;;;;4.00;3.90;;;12.30;99.90;;;;;;5073289;28;20219;-66
2022/12/29 03:49:32;;;;;;;3.90;3.80;;;12.20;99.90;;;;;;5064102;28;20206;-66
2022/12/29 03:51:58;;;;;;;4.23;4.03;;;12.20;99.90;;;;;;5053024;28;20254;-66
2022/12/29 03:54:23;;;;;;;3.80;3.60;;;12.20;99.90;;;;;;5053151;28;20197;-65
2022/12/29 03:56:49;;;;;;;4.30;4.10;;;12.20;99.90;;;;;;5053106;28;20181;-66
2022/12/29 03:59:15;;;;;;;3.80;3.60;;;12.20;99.90;;;;;;5057797;28;20202;-65
2022/12/29 04:01:41;;;;;;;4.03;3.73;;;12.30;99.90;;;;;;5063644;28;20202;-65
2022/12/29 04:04:06;;;;;;;3.90;3.70;;;12.30;99.90;;;;;;5040164;28;20177;-66
2022/12/29 04:06:32;;;;;;;4.27;4.07;;;12.30;99.90;;;;;;5072906;28;20185;-66
2022/12/29 04:08:58;;;;;;;3.70;3.50;;;12.20;99.90;;;;;;5058941;28;20187;-65
2022/12/29 04:11:23;;;;;;;3.70;3.60;;;12.20;99.90;;;;;;5052299;28;20191;-64
2022/12/29 04:13:49;;;;;;;4.23;4.03;;;12.20;99.90;;;;;;5063485;28;20239;-65
2022/12/29 04:16:14;;;;;;;4.33;4.13;;;12.10;99.90;;;;;;5072625;28;20296;-65
2022/12/29 04:18:40;;;;;;;3.80;3.70;;;12.00;99.90;;;;;;5063171;28;20266;-65
2022/12/29 04:21:06;;;;;;;4.40;4.20;;;11.90;99.90;;;;;;5052150;28;20589;-64
2022/12/29 04:23:35;;;;;;;4.20;4.00;;;11.90;99.90;;;;;;5059684;28;20178;-65
2022/12/29 04:26:01;;;;;;;3.73;3.63;;;11.80;99.90;;;;;;5072509;28;20182;-65
2022/12/29 04:28:27;;;;;;;3.90;3.80;;;11.80;99.90;;;;;;5065986;28;20253;-65
2022/12/29 04:30:53;;;;;;;4.20;4.00;;;11.80;99.90;;;;;;5052147;28;20277;-65
2022/12/29 04:33:20;;;;;;;4.00;3.80;;;11.80;99.90;;;;;;5056806;28;20270;-65
2022/12/29 04:35:46;;;;;;;3.83;3.73;;;11.90;99.90;;;;;;5034925;28;20261;-65
2022/12/29 04:38:12;;;;;;;4.50;4.30;;;12.00;99.90;;;;;;5038546;28;20201;-66
2022/12/29 04:40:42;;;;;;;5.43;5.17;;;12.10;99.90;;;;;;5071856;28;20210;-65
2022/12/29 04:43:09;;;;;;;5.70;5.50;;;12.20;99.90;;;;;;5070010;28;20231;-65
2022/12/29 04:45:35;;;;;;;4.30;3.93;;;12.20;99.90;;;;;;5034212;28;20201;-65
2022/12/29 04:48:00;;;;;;;5.13;4.73;;;12.30;99.90;;;;;;5052180;28;20682;-64
2022/12/29 04:50:26;;;;;;;5.00;4.70;;;12.30;99.90;;;;;;5071852;28;20198;-65
2022/12/29 04:52:51;;;;;;;4.50;4.30;;;12.30;91.60;;;;;;5071298;28;20243;-65
2022/12/29 04:55:17;;;;;;;4.43;4.20;;;12.30;79.30;;;;;;5052928;28;20213;-65
2022/12/29 04:57:43;;;;;;;3.90;3.80;;;12.30;87.00;;;;;;5051844;28;20546;-65
2022/12/29 05:00:09;;;;;;;3.70;3.50;;;12.30;68.00;;;;;;5068168;28;20247;-65
2022/12/29 05:02:36;;;;;;;4.30;4.10;;;12.30;63.00;;;;;;5071846;28;20535;-65
2022/12/29 05:05:01;;;;;;;5.20;4.90;;;12.30;45.80;;;;;;5069734;28;20213;-65
2022/12/29 05:07:27;;;;;;;4.07;3.87;;;12.40;30.90;;;;;;5057345;28;20187;-65
2022/12/29 05:09:53;;;;;;;5.00;4.10;;;12.40;28.60;;;;;;5064868;28;20584;-65
2022/12/29 05:12:18;;;;;;;4.60;4.40;;;12.40;44.90;;;;;;5071826;28;20710;-65
2022/12/29 05:14:44;;;;;;;3.70;3.60;;;12.40;31.60;;;;;;5059496;28;20190;-65
2022/12/29 05:17:09;;;;;;;4.77;4.37;;;12.50;23.00;;;;;;5051742;28;20181;-65
2022/12/29 05:19:35;;;;;;;4.77;4.57;;;12.50;13.20;;;;;;5061083;28;20202;-66
2022/12/29 05:22:01;;;;;;;4.40;4.20;;;12.60;5.80;;;;;;5071140;28;20362;-65
2022/12/29 05:24:26;;;;;;;4.20;4.00;;;12.60;1.00;;;;;;5063022;28;20179;-65
2022/12/29 05:26:52;;;;;;;3.90;3.80;;;12.60;1.00;;;;;;5051718;28;20171;-65
2022/12/29 05:29:18;;;;;;;4.40;4.20;;;12.70;1.00;;;;;;5051574;28;20567;-65
2022/12/29 05:31:43;;;;;;;4.77;4.47;;;12.70;1.00;;;;;;5053033;28;20179;-65
2022/12/29 05:34:11;;;;;;;4.00;3.90;;;12.70;1.00;;;;;;5071317;28;20474;-65
2022/12/29 05:36:37;;;;;;;4.10;3.80;;;12.60;1.00;;;;;;5053037;28;20205;-65
2022/12/29 05:39:03;;;;;;;4.00;3.70;;;12.60;1.00;;;;;;5045774;28;20655;-65
2022/12/29 05:41:28;;;;;;;3.90;3.80;;;12.60;1.00;;;;;;5031681;28;20258;-65
2022/12/29 05:43:54;;;;;;;6.23;5.93;;;12.60;1.00;;;;;;5071342;28;20710;-65
2022/12/29 05:46:19;;;;;;;4.23;4.03;;;12.60;1.00;;;;;;5037394;28;20195;-65
2022/12/29 05:48:45;;;;;;;3.80;3.70;;;12.60;1.00;;;;;;5069442;28;20197;-65
2022/12/29 05:51:11;;;;;;;4.47;4.17;;;12.50;1.00;;;;;;5070827;28;20201;-65
2022/12/29 05:53:36;;;;;;;3.87;3.67;;;12.60;1.00;;;;;;5053559;28;20190;-65
2022/12/29 05:56:02;;;;;;;10.23;9.80;;;12.50;1.00;;;;;;5051023;28;20206;-65
2022/12/29 05:58:28;;;;;;;4.03;3.83;;;12.50;1.00;;;;;;5066087;28;20219;-65
2022/12/29 06:00:53;;;;;;;4.10;3.90;;;12.50;1.00;;;;;;5058846;28;20199;-66
2022/12/29 06:03:19;;;;;;;4.20;4.00;;;12.40;1.00;;;;;;5051231;28;20174;-65
2022/12/29 06:05:47;;;;;;;4.43;4.23;;;12.40;1.00;;;;;;5051298;28;20187;-65
2022/12/29 06:08:13;;;;;;;5.47;5.27;;;12.40;1.00;;;;;;5051306;28;20241;-65
2022/12/29 06:10:38;;;;;;;3.80;3.60;;;12.40;1.00;;;;;;5051126;28;20668;-65
2022/12/29 06:13:05;;;;;;;4.77;4.47;;;12.40;1.00;;;;;;5050920;28;20194;-65
2022/12/29 06:15:32;;;;;;;5.13;4.93;;;12.40;1.00;;;;;;5058064;28;20253;-64
2022/12/29 06:17:57;;;;;;;4.20;4.00;;;12.40;1.00;;;;;;5071367;28;20170;-65
2022/12/29 06:20:23;;;;;;;4.17;3.97;;;12.40;1.00;;;;;;5068820;28;20194;-65
2022/12/29 06:22:49;;;;;;;9.23;8.83;;;12.30;1.00;;;;;;5050845;28;20206;-64
2022/12/29 06:25:15;;;;;;;4.00;3.70;;;12.20;1.00;;;;;;5050791;28;20289;-65
2022/12/29 06:27:41;;;;;;;4.30;3.90;;;12.20;1.00;;;;;;5051033;28;20206;-65
2022/12/29 06:30:08;;;;;;;3.70;3.50;;;12.20;1.00;;;;;;5070508;28;20662;-65
2022/12/29 06:32:34;;;;;;;9.23;4.00;;;12.10;1.00;;;;;;5070884;28;20174;-65
2022/12/29 06:35:00;;;;;;;3.90;3.60;;;12.10;1.00;;;;;;5054500;28;20201;-65
2022/12/29 06:37:26;;;;;;;4.30;3.90;;;12.10;1.00;;;;;;5037021;28;20260;-65
2022/12/29 06:39:52;;;;;;;4.43;4.03;;;12.10;1.00;;;;;;5054540;28;20685;-64
2022/12/29 06:42:17;;;;;;;4.00;3.80;;;12.10;1.00;;;;;;5074838;28;20635;-65
2022/12/29 06:44:43;;;;;;;4.20;3.90;;;12.20;1.00;;;;;;5043259;28;20196;-65
2022/12/29 06:47:09;;;;;;;4.10;3.90;;;12.10;1.90;;;;;;5034401;28;20175;-65
2022/12/29 06:49:34;;;;;;;4.00;3.80;;;12.10;2.50;;;;;;5046757;28;20658;-65
2022/12/29 06:52:03;;;;;;;4.20;4.00;;;12.20;10.30;;;;;;5069281;28;20669;-64
2022/12/29 06:54:28;;;;;;;10.60;10.10;;;12.20;9.50;;;;;;5073682;28;20257;-64
2022/12/29 06:56:54;;;;;;;5.10;4.90;;;12.20;9.30;;;;;;5070578;28;20309;-64
2022/12/29 06:59:20;;;;;;;5.30;4.97;;;12.20;10.30;;;;;;5054021;28;20195;-65
2022/12/29 07:01:45;;;;;;;5.37;4.97;;;12.20;13.30;;;;;;5054607;28;20644;-65
2022/12/29 07:04:11;;;;;;;3.90;3.80;;;12.20;22.90;;;;;;5053572;28;20179;-65
2022/12/29 07:06:36;;;;;;;4.20;4.00;;;12.20;26.50;;;;;;5053818;28;20193;-64
2022/12/29 07:09:02;;;;;;;5.50;5.10;;;12.10;25.20;;;;;;5053893;28;20186;-65
2022/12/29 07:11:27;;;;;;;4.10;3.90;;;12.10;27.70;;;;;;5054040;28;20237;-65
2022/12/29 07:13:53;;;;;;;3.80;3.60;;;12.10;27.70;;;;;;5053761;28;20178;-65
2022/12/29 07:16:19;;;;;;;4.20;3.90;;;12.10;22.20;;;;;;5046857;28;20322;-65
2022/12/29 07:18:45;;;;;;;4.87;4.57;;;12.10;28.00;;;;;;5049530;28;20182;-65
2022/12/29 07:21:11;;;;;;;3.90;3.70;;;12.10;30.70;;;;;;5053275;28;20594;-66
2022/12/29 07:23:37;;;;;;;3.60;3.50;;;12.10;30.20;;;;;;5053783;28;20177;-64
2022/12/29 07:26:08;;;;;;;3.47;3.37;;;12.10;23.90;;;;;;5059389;28;20619;-64
2022/12/29 07:28:35;;;;;;;4.10;3.80;;;12.10;25.30;;;;;;5073733;28;20178;-65
2022/12/29 07:31:01;;;;;;;3.97;3.67;;;12.10;29.00;;;;;;5066722;28;20252;-63
2022/12/29 07:33:30;;;;;;;4.03;3.73;;;12.00;30.00;;;;;;5053600;28;20175;-64
2022/12/29 07:35:56;;;;;;;3.90;3.70;;;11.90;40.90;;;;;;5039068;28;20205;-65
2022/12/29 07:38:22;;;;;;;6.00;4.80;;;11.90;47.70;;;;;;5073537;28;20171;-65
2022/12/29 07:40:48;;;;;;;4.40;4.20;;;11.80;42.00;;;;;;5064859;28;20268;-65
2022/12/29 07:43:13;;;;;;;6.23;5.83;;;11.80;46.20;;;;;;5053067;28;20175;-64
2022/12/29 07:45:39;;;;;;;4.70;4.50;;;11.80;45.50;;;;;;5058399;28;20265;-63
2022/12/29 07:48:07;;;;;;;4.77;4.37;;;11.90;45.50;;;;;;5072925;28;20178;-64
2022/12/29 07:50:36;;;;;;;5.40;5.00;;;11.90;51.50;;;;;;5053377;28;20226;-64
2022/12/29 07:53:02;;;;;;;4.30;4.10;;;11.90;56.10;;;;;;5053121;28;20240;-65
2022/12/29 07:55:28;;;;;;;4.00;3.80;;;11.90;64.60;;;;;;5071225;28;20626;-64
2022/12/29 07:57:55;;;;;;;3.70;3.60;;;11.90;58.00;;;;;;5073059;28;20174;-64
2022/12/29 08:00:20;;;;;;;4.00;3.80;;;11.80;75.60;;;;;;5055755;28;20697;-65
2022/12/29 08:02:47;;;;;;;3.50;3.40;;;;;;;;;;5053104;28;20429;-65
2022/12/29 08:05:12;;;;;;;5.43;4.20;;;11.70;86.30;;;;;;5067710;28;20193;-64
2022/12/29 08:07:38;;;;;;;4.80;4.30;;;11.60;96.70;;;;;;5072980;28;20178;-65
2022/12/29 08:10:04;;;;;;;4.23;3.83;;;11.50;99.90;;;;;;5058948;28;20202;-65
2022/12/29 08:12:30;;;;;;;4.17;3.97;;;11.50;99.90;;;;;;5053178;28;20174;-64
2022/12/29 08:14:55;;;;;;;4.13;3.93;;;11.50;99.90;;;;;;5053803;28;20689;-65
2022/12/29 08:17:21;;;;;;;4.20;3.90;;;11.50;93.00;;;;;;5052836;28;20183;-65
2022/12/29 08:19:46;;;;;;;4.57;4.27;;;11.60;91.80;;;;;;5052751;28;20222;-64
2022/12/29 08:22:14;;;;;;;4.93;4.10;;;11.60;92.80;;;;;;5052526;28;20214;-64
2022/12/29 08:24:39;;;;;;;4.70;4.40;;;11.60;85.90;;;;;;5056405;28;20609;-65
2022/12/29 08:27:05;;;;;;;3.80;3.60;;;11.50;67.00;;;;;;5052580;28;20249;-65
2022/12/29 08:29:30;;;;;;;4.30;4.10;;;11.50;79.00;;;;;;5052389;28;20198;-65
2022/12/29 08:31:56;;;;;;;4.30;4.10;;;11.50;61.40;;;;;;5046340;28;20187;-65
2022/12/29 08:34:21;;;;;;;4.87;4.47;;;11.50;65.00;;;;;;5032547;28;20439;-64
2022/12/29 08:36:47;;;;;;;4.43;4.10;;;11.50;48.00;;;;;;5032584;28;20207;-64
2022/12/29 08:41:39;;;;;;;3.90;3.70;;;11.50;25.90;;;;;;5093016;22;20647;-66
2022/12/29 08:44:05;;;;;;;4.70;4.30;;;11.50;11.80;;;;;;5072298;28;20162;-66
2022/12/29 08:46:31;;;;;;;4.90;4.60;;;11.60;1.00;;;;;;5071559;28;20185;-66
2022/12/29 08:48:57;;;;;;;5.20;4.20;;;11.60;1.00;;;;;;5072341;28;20170;-65
2022/12/29 08:51:22;;;;;;;5.10;4.37;;;11.70;1.00;;;;;;5072018;28;20610;-65
2022/12/29 08:53:48;;;;;;;6.40;5.90;;;11.70;1.00;;;;;;5070994;28;20178;-65
2022/12/29 08:56:14;;;;;;;4.17;3.97;;;11.70;1.00;;;;;;5071641;28;20209;-66
2022/12/29 08:58:40;;;;;;;7.70;7.40;;;11.80;1.00;;;;;;5072501;28;20250;-65
2022/12/29 09:01:06;;;;;;;4.07;3.83;;;11.80;1.00;;;;;;5071761;28;20186;-65
2022/12/29 09:03:31;;;;;;;8.97;4.00;;;11.90;1.00;;;;;;5069946;28;20182;-65
2022/12/29 09:05:57;;;;;;;3.67;3.50;;;12.10;1.00;;;;;;5071849;28;20182;-66
2022/12/29 09:08:23;;;;;;;4.23;3.83;;;12.40;1.00;;;;;;5072151;28;20178;-66
2022/12/29 09:10:49;;;;;;;5.63;4.60;;;12.70;1.00;;;;;;5071780;28;20194;-66
2022/12/29 09:13:16;;;;;;;5.00;3.70;;;13.10;99.90;;;;;;5071955;28;20182;-66
2022/12/29 09:15:42;;;;;;;4.67;3.87;;;13.10;1.00;;;;;;5072066;28;20569;-66
2022/12/29 09:18:09;;;;;;;64.60;60.80;;;13.20;99.90;;;;;;5071801;28;20174;-66
2022/12/29 09:20:35;;;;;;;4.33;3.80;;;13.30;1.00;;;;;;5071765;28;20277;-66
2022/12/29 09:23:01;;;;;;;4.87;4.57;;;13.40;1.00;;;;;;5071905;28;20261;-66
2022/12/29 09:25:27;;;;;;;3.77;3.60;;;13.50;1.00;;;;;;5072094;28;20639;-66
2022/12/29 09:27:53;;;;;;;9.90;9.40;;;13.60;1.00;;;;;;5071846;28;20224;-66
2022/12/29 09:30:21;;;;;;;3.93;3.57;;;13.70;1.00;;;;;;5071413;28;20535;-66
2022/12/29 09:32:47;;;;;;;6.87;3.47;;;13.90;1.00;;;;;;5071860;28;20178;-66
2022/12/29 09:35:13;;;;;;;4.07;3.77;;;14.00;1.00;;;;;;5069500;28;20220;-66
2022/12/29 09:37:39;;;;;;;8.30;7.90;;;14.10;1.00;;;;;;5071804;28;20166;-66
2022/12/29 09:40:06;;;;;;;3.60;3.37;;;14.10;1.00;;;;;;5070348;28;20214;-66
2022/12/29 09:42:44;;;;;;;7.37;3.70;;;14.00;1.00;;;;;;5072065;28;20643;-66
2022/12/29 09:45:18;;;;;;;4.73;4.03;;;13.90;1.00;;;;;;5071760;28;20548;-67
2022/12/29 09:47:45;;;;;;;4.10;3.87;;;13.70;1.00;;;;;;5071839;28;20201;-66
2022/12/29 09:50:23;;;;;;;4.90;4.47;;;13.60;1.00;;;;;;5071426;28;20189;-67
2022/12/29 09:52:54;;;;;;;3.67;3.23;;;13.70;1.00;;;;;;5071837;28;20170;-67
2022/12/29 09:55:24;;;;;;;5.20;4.23;;;13.70;1.00;;;;;;5071535;28;20197;-66
2022/12/29 09:57:58;;;;;;;6.60;4.00;;;13.80;1.00;;;;;;5071812;28;20239;-66
2022/12/29 10:00:38;;;;;;;4.30;4.10;;;13.80;1.00;;;;;;5071242;28;20194;-66
2022/12/29 10:03:15;;;;;;;4.33;3.77;;;13.70;1.00;;;;;;5071455;28;20170;-66
2022/12/29 10:05:59;;;;;;;4.07;3.77;;;13.70;1.00;;;;;;5069621;28;20186;-65
2022/12/29 10:08:44;;;;;;;3.50;3.30;;;13.70;1.00;;;;;;5075455;28;20166;-67
2022/12/29 10:11:09;;;;;;;5.40;4.30;;;13.70;1.00;;;;;;5075125;28;20555;-67
2022/12/29 10:13:57;;;;;;;4.43;4.03;;;13.60;1.00;;;;;;5075586;28;20261;-66
2022/12/29 10:16:56;;;;;;;4.43;4.03;;;13.40;1.00;;;;;;5075376;28;20296;-67
2022/12/29 10:19:43;;;;;;;4.53;3.90;;;13.30;1.00;;;;;;5075136;28;20648;-66
2022/12/29 10:22:40;;;;;;;3.93;3.73;;;13.20;1.00;;;;;;5075306;28;20201;-66
2022/12/29 10:25:17;;;;;;;4.43;4.17;;;13.10;1.00;;;;;;5075258;28;20178;-66
2022/12/29 10:27:46;;;;;;;3.60;3.50;;;12.90;1.00;;;;;;5075615;28;20181;-66
2022/12/29 10:30:13;;;;;;;3.93;3.67;;;13.10;1.00;;;;;;5074898;28;20197;-67
2022/12/29 10:32:51;;;;;;;6.13;3.43;;;13.20;1.00;;;;;;5074105;28;20232;-66
2022/12/29 10:35:29;;;;;;;3.67;3.40;;;13.30;1.00;;;;;;5075038;28;20213;-67
2022/12/29 10:38:01;;;;;;;4.20;3.80;;;13.50;1.00;;;;;;5072592;28;20178;-67
2022/12/29 10:40:51;;;;;;;4.10;3.80;;;13.70;1.00;;;;;;5074658;28;20213;-67
2022/12/29 10:43:17;;;;;;;6.53;3.97;;;13.80;1.00;;;;;;5083441;28;20170;-66
2022/12/29 10:45:42;;;;;;;3.90;3.70;;;13.70;1.00;;;;;;5082506;28;20231;-67
2022/12/29 10:48:26;;;;;;;4.03;3.63;;;13.70;1.00;;;;;;5074497;28;20260;-65
2022/12/29 10:50:56;;;;;;;4.67;4.47;;;13.80;1.00;;;;;;5054662;28;20198;-66
2022/12/29 10:53:30;;;;;;;4.50;4.30;;;14.00;1.00;;;;;;5083690;28;20181;-65
2022/12/29 10:55:56;;;;;;;5.07;4.63;;;13.90;1.00;;;;;;5096008;28;20201;-66
2022/12/29 10:58:23;;;;;;;4.37;4.17;;;13.80;1.00;;;;;;5092281;28;20184;-67
2022/12/29 11:00:53;;;;;;;3.70;3.40;;;14.00;1.00;;;;;;5094299;28;20185;-66
2022/12/29 11:03:28;;;;;;;3.60;3.40;;;14.10;1.00;;;;;;5081259;28;20186;-66
2022/12/29 11:06:06;;;;;;;4.57;4.07;;;14.20;1.00;;;;;;5074049;28;20252;-66
2022/12/29 11:08:45;;;;;;;3.43;3.23;;;14.30;1.00;;;;;;5083023;28;20192;-67
2022/12/29 11:11:10;;;;;;;6.47;4.50;;;14.50;1.00;;;;;;5073662;28;20194;-66
2022/12/29 11:13:58;;;;;;;3.83;3.53;;;14.50;1.00;;;;;;5086896;28;20184;-66
2022/12/29 11:16:34;;;;;;;4.87;4.57;;;14.20;1.00;;;;;;5092993;28;20205;-66
2022/12/29 11:19:00;;;;;;;4.23;3.83;;;14.00;1.00;;;;;;5073388;28;20174;-66
2022/12/29 11:21:41;;;;;;;4.70;4.27;;;13.90;1.00;;;;;;5074446;28;20250;-67
2022/12/29 11:24:19;;;;;;;4.30;3.87;;;14.10;1.00;;;;;;5054044;28;20239;-66
2022/12/29 11:26:45;;;;;;;5.07;4.67;;;14.20;1.00;;;;;;5068645;28;20224;-66
2022/12/29 11:29:16;;;;;;;4.93;4.70;;;14.20;1.00;;;;;;5073874;28;20174;-68
2022/12/29 11:31:47;;;;;;;7.47;4.90;;;14.20;1.00;;;;;;5073869;28;20178;-67
2022/12/29 11:34:26;;;;;;;4.20;3.90;;;14.10;1.00;;;;;;5065634;28;20235;-66
2022/12/29 11:36:58;;;;;;;6.30;4.20;;;14.10;1.00;;;;;;5074262;28;20306;-65
2022/12/29 11:39:30;;;;;;;4.70;4.30;;;13.80;1.00;;;;;;5084354;28;20655;-65
2022/12/29 11:41:57;;;;;;;4.80;3.60;;;13.60;1.00;;;;;;5071090;28;20182;-66
2022/12/29 11:44:23;;;;;;;8.00;4.50;;;13.50;1.00;;;;;;5072291;28;20185;-66
2022/12/29 11:46:51;;;;;;;4.17;3.80;;;13.40;1.00;;;;;;5073534;28;20174;-67
2022/12/29 11:49:23;;;;;;;4.70;4.50;;;13.20;1.00;;;;;;5072792;28;20198;-66
2022/12/29 11:51:50;;;;;;;3.70;3.50;;;13.10;1.00;;;;;;5076673;28;20200;-66
2022/12/29 11:54:42;;;;;;;5.90;5.60;;;13.00;1.00;;;;;;5093763;28;20658;-65
2022/12/29 11:57:13;;;;;;;5.50;4.40;;;12.90;1.00;;;;;;5088889;28;20200;-65
2022/12/29 11:59:42;;;;;;;5.37;4.87;;;12.70;1.00;;;;;;5093444;28;20186;-66
2022/12/29 12:02:56;;;;;;;4.60;4.20;;;12.70;1.00;;;;;;5070930;28;20266;-65
2022/12/29 12:05:33;;;;;;;8.13;4.93;;;12.70;1.00;;;;;;5062152;28;20253;-66
2022/12/29 12:08:17;;;;;;;4.47;4.17;;;12.70;1.00;;;;;;5078225;28;20170;-65
2022/12/29 12:10:54;;;;;;;4.13;3.93;;;12.80;1.00;;;;;;5062798;28;20190;-65
2022/12/29 12:13:57;;;;;;;5.77;5.33;;;12.80;1.00;;;;;;5073156;28;20285;-65
2022/12/29 12:16:31;;;;;;;4.10;3.80;;;12.90;1.00;;;;;;5053280;28;20566;-66
2022/12/29 12:19:13;;;;;;;6.27;3.93;;;13.10;1.00;;;;;;5054138;28;20177;-67
2022/12/29 12:21:43;;;;;;;4.33;4.03;;;13.10;1.00;;;;;;5053018;28;20198;-65
2022/12/29 12:24:26;;;;;;;6.40;4.23;;;13.20;1.00;;;;;;5052594;28;20182;-66
2022/12/29 12:27:30;;;;;;;8.10;4.87;;;13.00;1.00;;;;;;5062171;28;20178;-66
2022/12/29 12:30:21;;;;;;;5.07;4.07;;;13.00;1.00;;;;;;5068330;28;20202;-66
2022/12/29 12:33:13;;;;;;;6.83;3.70;;;13.00;1.00;;;;;;5076024;28;20680;-65
2022/12/29 12:36:27;;;;;;;4.47;4.00;;;13.10;1.00;;;;;;5091232;28;20209;-66
2022/12/29 12:39:10;;;;;;;4.73;4.33;;;13.10;1.00;;;;;;5091013;28;20582;-66
2022/12/29 12:42:10;;;;;;;4.33;3.93;;;13.10;1.00;;;;;;5081420;28;20209;-66
2022/12/29 12:44:58;;;;;;;3.77;3.67;;;13.10;1.00;;;;;;5087416;28;20169;-66
2022/12/29 12:48:05;;;;;;;5.37;4.10;;;13.10;1.00;;;;;;5092586;28;20177;-66
2022/12/29 12:50:43;;;;;;;6.27;4.50;;;12.90;1.00;;;;;;5069004;28;20289;-66
2022/12/29 12:53:30;;;;;;;5.10;4.23;;;12.90;1.00;;;;;;5083423;28;20578;-67
2022/12/29 12:56:10;;;;;;;6.07;4.70;;;12.80;1.00;;;;;;5088935;28;20634;-66
2022/12/29 12:59:02;;;;;;;7.73;4.70;;;12.80;1.00;;;;;;5087975;28;20567;-66
2022/12/29 13:01:51;;;;;;;5.47;4.20;;;12.70;1.00;;;;;;5086802;28;20477;-66
2022/12/29 13:04:46;;;;;;;8.93;3.83;;;12.70;1.00;;;;;;5072635;28;20594;-67
2022/12/29 13:07:28;;;;;;;6.83;4.50;;;12.70;1.00;;;;;;5074425;28;20173;-64
2022/12/29 13:10:04;;;;;;;4.60;4.20;;;12.70;1.00;;;;;;5088209;28;20224;-65
2022/12/29 13:13:14;;;;;;;4.83;4.47;;;12.70;1.00;;;;;;5088610;28;20467;-66
2022/12/29 13:15:57;;;;;;;4.30;3.90;;;12.70;1.00;;;;;;5085682;28;20177;-69
2022/12/29 13:18:47;;;;;;;4.60;3.83;;;12.60;1.00;;;;;;5088250;28;20177;-66
2022/12/29 13:21:37;;;;;;;4.53;4.30;;;12.50;1.00;;;;;;5067884;28;20186;-66
2022/12/29 13:24:35;;;;;;;4.20;3.90;;;12.40;1.00;;;;;;5068079;28;20179;-67
2022/12/29 13:27:14;;;;;;;3.80;3.60;;;12.30;1.00;;;;;;5068103;28;20186;-67
2022/12/29 13:30:02;;;;;;;4.13;3.93;;;12.30;1.00;;;;;;5068669;28;20193;-66
2022/12/29 13:33:10;;;;;;;5.27;4.70;;;12.20;1.00;;;;;;5068718;28;20217;-66
2022/12/29 13:35:58;;;;;;;7.10;4.20;;;12.10;1.00;;;;;;5065804;28;20564;-66
2022/12/29 13:38:26;;;;;;;4.70;4.33;;;12.00;1.00;;;;;;5069058;28;20647;-67
2022/12/29 13:40:59;;;;;;;4.23;4.03;;;12.00;1.00;;;;;;5067852;28;20217;-66
2022/12/29 13:43:27;;;;;;;4.50;4.20;;;12.00;1.00;;;;;;5070121;28;20524;-66
2022/12/29 13:46:13;;;;;;;4.40;4.00;;;11.90;1.00;;;;;;5086311;28;20170;-67
2022/12/29 13:48:54;;;;;;;5.07;4.40;;;11.90;1.00;;;;;;5088115;28;20505;-67
2022/12/29 13:51:22;;;;;;;8.50;5.77;;;11.80;1.00;;;;;;5085802;28;20205;-67
2022/12/29 13:54:12;;;;;;;5.77;5.33;;;11.80;1.00;;;;;;5087767;28;20181;-66
2022/12/29 13:56:59;;;;;;;4.90;4.03;;;11.80;1.00;;;;;;5083026;28;20185;-67